Time;durP1;ratioP1;P1;durP2;ratioP2;P2;SDS_P1;SDS_P2;PMS_P1;PMS_P2;Temp;Humidity;BMP_temperature;BMP_pressure;BME280_temperature;BME280_humidity;BME280_pressure;Samples;Min_cycle;Max_cycle;Signal;HPM_P1;HPM_P2
2021/05/19 00:01:46;;;;;;;;;;;10.60;95.60;;;;;;5093783;28;20318;-40
2021/05/19 00:04:11;;;;;;;;;;;10.60;95.70;;;;;;5107636;28;20732;-39
2021/05/19 00:06:38;;;;;;;;;;;10.60;95.70;;;;;;5097635;28;20006;-39
2021/05/19 00:09:07;;;;;;;;;;;10.60;95.70;;;;;;5109391;28;19907;-38
2021/05/19 00:11:33;;;;;;;;;;;10.50;95.70;;;;;;5101762;28;19904;-38
2021/05/19 00:13:59;;;;;;;;;;;10.50;95.80;;;;;;5088310;28;20405;-38
2021/05/19 00:16:25;;;;;;;;;;;10.50;95.90;;;;;;5101592;28;19908;-38
2021/05/19 00:18:50;;;;;;;;;;;10.50;95.90;;;;;;5087939;28;20357;-38
2021/05/19 00:21:16;;;;;;;;;;;10.40;95.90;;;;;;5099245;28;19908;-39
2021/05/19 00:23:41;;;;;;;;;;;10.40;96.00;;;;;;5089797;28;20006;-39
2021/05/19 00:26:07;;;;;;;;;;;10.40;96.00;;;;;;5096688;28;19981;-38
2021/05/19 00:28:35;;;;;;;;;;;10.40;96.00;;;;;;5092425;28;19942;-38
2021/05/19 00:31:04;;;;;;;;;;;10.40;96.10;;;;;;5093862;28;20449;-39
2021/05/19 00:33:29;;;;;;;;;;;10.40;96.10;;;;;;5094231;28;19904;-39
2021/05/19 00:35:55;;;;;;;;;;;10.40;96.10;;;;;;5091585;28;19915;-39
2021/05/19 00:38:20;;;;;;;;;;;10.30;96.10;;;;;;5098014;28;20360;-39
2021/05/19 00:40:47;;;;;;;;;;;10.30;96.10;;;;;;5088637;28;20504;-40
2021/05/19 00:43:12;;;;;;;;;;;10.30;96.20;;;;;;5099367;28;19908;-40
2021/05/19 00:45:38;;;;;;;;;;;10.30;96.20;;;;;;5089400;28;20488;-40
2021/05/19 00:48:04;;;;;;;;;;;10.30;96.20;;;;;;5099079;28;19914;-36
2021/05/19 00:50:30;;;;;;;;;;;10.20;96.30;;;;;;5088157;28;19991;-37
2021/05/19 00:52:56;;;;;;;;;;;10.20;96.30;;;;;;5100774;28;20572;-38
2021/05/19 00:55:22;;;;;;;;;;;10.20;96.40;;;;;;5092422;28;19937;-38
2021/05/19 00:57:49;;;;;;;;;;;10.20;96.40;;;;;;5094836;28;19961;-40
2021/05/19 01:00:16;;;;;;;;;;;10.10;96.40;;;;;;5109229;28;19911;-38
2021/05/19 01:02:41;;;;;;;;;;;10.10;96.40;;;;;;5096079;28;19943;-40
2021/05/19 01:05:10;;;;;;;;;;;10.10;96.40;;;;;;5107346;28;19970;-39
2021/05/19 01:07:37;;;;;;;;;;;10.10;96.40;;;;;;5099455;28;19904;-40
2021/05/19 01:10:03;;;;;;;;;;;10.10;96.50;;;;;;5104105;28;20331;-38
2021/05/19 01:12:29;;;;;;;;;;;10.10;96.40;;;;;;5101186;28;19950;-40
2021/05/19 01:14:55;;;;;;;;;;;10.10;96.40;;;;;;5102243;28;19923;-39
2021/05/19 01:17:21;;;;;;;;;;;10.20;96.40;;;;;;5103839;28;20252;-39
2021/05/19 01:19:47;;;;;;;;;;;10.30;96.30;;;;;;5098767;28;19908;-39
2021/05/19 01:22:19;;;;;;;;;;;10.30;96.30;;;;;;5106897;28;19915;-39
2021/05/19 01:24:45;;;;;;;;;;;10.30;96.30;;;;;;5097023;28;19927;-38
2021/05/19 01:27:11;;;;;;;;;;;10.30;96.30;;;;;;5106418;28;19908;-39
2021/05/19 01:29:36;;;;;;;;;;;10.40;96.40;;;;;;5096324;28;19958;-38
2021/05/19 01:32:02;;;;;;;;;;;10.40;96.30;;;;;;5106504;28;19961;-39
2021/05/19 01:34:28;;;;;;;;;;;10.50;96.30;;;;;;5095876;28;19981;-39
2021/05/19 01:36:53;;;;;;;;;;;10.40;96.20;;;;;;5106991;28;19914;-38
2021/05/19 01:39:19;;;;;;;;;;;10.40;96.30;;;;;;5095101;28;19954;-43
2021/05/19 01:41:46;;;;;;;;;;;10.30;96.30;;;;;;5107134;28;19980;-39
2021/05/19 01:44:20;;;;;;;;;;;10.30;96.40;;;;;;5094696;28;19916;-38
2021/05/19 01:46:46;;;;;;;;;;;10.30;96.50;;;;;;5087253;28;19972;-39
2021/05/19 01:49:13;;;;;;;;;;;10.20;96.60;;;;;;5091320;28;19927;-39
2021/05/19 01:51:39;;;;;;;;;;;10.20;96.60;;;;;;5105695;28;19911;-41
2021/05/19 01:54:05;;;;;;;;;;;10.20;96.70;;;;;;5099212;28;20348;-39
2021/05/19 01:56:31;;;;;;;;;;;10.10;96.80;;;;;;5089027;28;20472;-40
2021/05/19 01:58:57;;;;;;;;;;;10.10;96.80;;;;;;5091910;28;19908;-39
2021/05/19 02:01:23;;;;;;;;;;;10.10;96.90;;;;;;5093859;28;20424;-40
2021/05/19 02:03:48;;;;;;;;;;;10.00;96.90;;;;;;5089577;28;19981;-40
2021/05/19 02:06:14;;;;;;;;;;;10.00;96.90;;;;;;5096014;28;19915;-38
2021/05/19 02:08:39;;;;;;;;;;;9.90;97.00;;;;;;5087553;28;19912;-39
2021/05/19 02:11:05;;;;;;;;;;;9.90;97.00;;;;;;5098377;28;19911;-38
2021/05/19 02:13:30;;;;;;;;;;;9.90;97.10;;;;;;5087187;28;19916;-39
2021/05/19 02:15:56;;;;;;;;;;;9.90;97.10;;;;;;5097936;28;20245;-39
2021/05/19 02:18:21;;;;;;;;;;;9.80;97.10;;;;;;5087493;28;19908;-38
2021/05/19 02:20:46;;;;;;;;;;;9.90;97.20;;;;;;5098028;28;20323;-40
2021/05/19 02:23:12;;;;;;;;;;;9.80;97.20;;;;;;5086765;28;19942;-39
2021/05/19 02:25:37;;;;;;;;;;;9.80;97.20;;;;;;5098869;28;20324;-39
2021/05/19 02:28:03;;;;;;;;;;;9.80;97.30;;;;;;5086034;28;20402;-39
2021/05/19 02:30:30;;;;;;;;;;;9.70;97.30;;;;;;5096357;28;19912;-40
2021/05/19 02:32:56;;;;;;;;;;;9.70;97.30;;;;;;5088908;28;19930;-39
2021/05/19 02:35:22;;;;;;;;;;;9.70;97.30;;;;;;5093779;28;19907;-42
2021/05/19 02:37:47;;;;;;;;;;;9.70;97.40;;;;;;5091046;28;20003;-38
2021/05/19 02:40:14;;;;;;;;;;;9.70;97.40;;;;;;5090646;28;20097;-39
2021/05/19 02:42:40;;;;;;;;;;;9.60;97.50;;;;;;5093941;28;19904;-39
2021/05/19 02:45:08;;;;;;;;;;;9.60;97.50;;;;;;5088960;28;19961;-38
2021/05/19 02:47:34;;;;;;;;;;;9.60;97.50;;;;;;5096055;28;19908;-37
2021/05/19 02:49:59;;;;;;;;;;;9.60;97.60;;;;;;5087429;28;20113;-38
2021/05/19 02:52:25;;;;;;;;;;;9.60;97.60;;;;;;5097944;28;19916;-37
2021/05/19 02:54:50;;;;;;;;;;;9.60;97.60;;;;;;5086810;28;19904;-37
2021/05/19 02:57:16;;;;;;;;;;;9.60;97.70;;;;;;5097730;28;19923;-38
2021/05/19 02:59:41;;;;;;;;;;;9.50;97.70;;;;;;5086164;28;20003;-36
2021/05/19 03:02:07;;;;;;;;;;;9.50;97.70;;;;;;5098518;28;20285;-40
2021/05/19 03:04:32;;;;;;;;;;;9.50;97.80;;;;;;5086742;28;19942;-39
2021/05/19 03:06:58;;;;;;;;;;;9.50;97.80;;;;;;5098305;28;20020;-39
2021/05/19 03:09:24;;;;;;;;;;;9.50;97.80;;;;;;5086132;28;19951;-38
2021/05/19 03:11:49;;;;;;;;;;;9.40;97.80;;;;;;5095444;28;19961;-36
2021/05/19 03:14:14;;;;;;;;;;;9.40;97.90;;;;;;5089126;28;19916;-39
2021/05/19 03:16:40;;;;;;;;;;;9.40;97.90;;;;;;5092556;28;19958;-37
2021/05/19 03:19:06;;;;;;;;;;;9.40;97.90;;;;;;5091870;28;19904;-39
2021/05/19 03:21:32;;;;;;;;;;;9.30;97.90;;;;;;5089950;28;19911;-40
2021/05/19 03:23:58;;;;;;;;;;;9.30;97.90;;;;;;5093947;28;19924;-39
2021/05/19 03:26:23;;;;;;;;;;;9.30;97.80;;;;;;5088140;28;20011;-38
2021/05/19 03:28:49;;;;;;;;;;;9.30;97.80;;;;;;5096691;28;20026;-37
2021/05/19 03:31:14;;;;;;;;;;;9.30;97.90;;;;;;5086940;28;20007;-39
2021/05/19 03:33:40;;;;;;;;;;;9.30;97.80;;;;;;5097311;28;19908;-37
2021/05/19 03:36:06;;;;;;;;;;;9.30;97.80;;;;;;5086045;28;19904;-38
2021/05/19 03:38:33;;;;;;;;;;;9.30;97.90;;;;;;5100879;28;19943;-40
2021/05/19 03:40:58;;;;;;;;;;;9.30;97.90;;;;;;5090709;28;19908;-40
2021/05/19 03:43:24;;;;;;;;;;;9.40;97.90;;;;;;5102307;28;19926;-40
2021/05/19 03:45:49;;;;;;;;;;;9.30;97.80;;;;;;5089182;28;19912;-40
2021/05/19 03:48:15;;;;;;;;;;;9.30;97.90;;;;;;5101681;28;19934;-40
2021/05/19 03:50:43;;;;;;;;;;;9.40;97.90;;;;;;5089822;28;20389;-38
2021/05/19 03:53:08;;;;;;;;;;;9.50;97.90;;;;;;5099301;28;19998;-40
2021/05/19 03:55:35;;;;;;;;;;;9.50;97.80;;;;;;5097468;28;20299;-39
2021/05/19 03:58:00;;;;;;;;;;;9.60;97.80;;;;;;5102115;28;20007;-39
2021/05/19 04:00:29;;;;;;;;;;;9.60;97.70;;;;;;5103723;28;19984;-39
2021/05/19 04:02:54;;;;;;;;;;;9.70;97.70;;;;;;5105207;28;20450;-38
2021/05/19 04:05:21;;;;;;;;;;;9.70;97.70;;;;;;5100813;28;20021;-39
2021/05/19 04:07:50;;;;;;;;;;;9.80;97.70;;;;;;5107288;28;20020;-39
2021/05/19 04:10:15;;;;;;;;;;;9.80;97.60;;;;;;5099015;28;20240;-38
2021/05/19 04:12:41;;;;;;;;;;;9.90;97.60;;;;;;5107210;28;20350;-39
2021/05/19 04:15:06;;;;;;;;;;;9.90;97.50;;;;;;5098599;28;19950;-39
2021/05/19 04:17:32;;;;;;;;;;;9.90;97.50;;;;;;5108447;28;20007;-38
2021/05/19 04:19:58;;;;;;;;;;;10.00;97.50;;;;;;5096909;28;20426;-37
2021/05/19 04:22:23;;;;;;;;;;;10.00;97.50;;;;;;5109325;28;19908;-39
2021/05/19 04:24:49;;;;;;;;;;;9.90;97.50;;;;;;5096254;28;20413;-39
2021/05/19 04:27:14;;;;;;;;;;;10.00;97.50;;;;;;5109281;28;20223;-39
2021/05/19 04:29:39;;;;;;;;;;;10.00;97.50;;;;;;5096767;28;19940;-39
2021/05/19 04:32:05;;;;;;;;;;;10.10;97.50;;;;;;5108025;28;20060;-39
2021/05/19 04:34:31;;;;;;;;;;;10.00;97.40;;;;;;5099261;28;19996;-39
2021/05/19 04:36:56;;;;;;;;;;;10.00;97.50;;;;;;5105327;28;20239;-40
2021/05/19 04:39:22;;;;;;;;;;;10.00;97.50;;;;;;5102819;28;20017;-40
2021/05/19 04:41:47;;;;;;;;;;;10.00;97.50;;;;;;5102288;28;19908;-39
2021/05/19 04:44:12;;;;;;;;;;;10.00;97.50;;;;;;5105359;28;19919;-40
2021/05/19 04:46:38;;;;;;;;;;;10.00;97.50;;;;;;5098808;28;19912;-38
2021/05/19 04:49:04;;;;;;;;;;;10.10;97.50;;;;;;5107236;28;20351;-39
2021/05/19 04:51:29;;;;;;;;;;;10.10;97.50;;;;;;5097584;28;19957;-39
2021/05/19 04:53:58;;;;;;;;;;;10.10;97.50;;;;;;5107021;28;20282;-39
2021/05/19 04:56:23;;;;;;;;;;;10.10;97.40;;;;;;5102259;28;19954;-38
2021/05/19 04:58:48;;;;;;;;;;;10.20;97.40;;;;;;5108144;28;20027;-39
2021/05/19 05:01:14;;;;;;;;;;;10.20;97.40;;;;;;5096239;28;19907;-39
2021/05/19 05:03:39;;;;;;;;;;;10.30;97.40;;;;;;5108549;28;20346;-40
2021/05/19 05:06:05;;;;;;;;;;;10.30;97.40;;;;;;5095817;28;19957;-40
2021/05/19 05:08:30;;;;;;;;;;;10.30;97.30;;;;;;5108951;28;19907;-40
2021/05/19 05:10:56;;;;;;;;;;;10.40;97.30;;;;;;5097157;28;19915;-40
2021/05/19 05:13:23;;;;;;;;;;;10.40;97.30;;;;;;5106698;28;20000;-39
2021/05/19 05:15:48;;;;;;;;;;;10.50;97.30;;;;;;5099552;28;19998;-40
2021/05/19 05:18:14;;;;;;;;;;;10.50;97.20;;;;;;5103976;28;19917;-40
2021/05/19 05:20:39;;;;;;;;;;;10.60;97.20;;;;;;5102426;28;19999;-39
2021/05/19 05:23:05;;;;;;;;;;;10.60;97.20;;;;;;5100580;28;19911;-39
2021/05/19 05:25:31;;;;;;;;;;;10.70;97.20;;;;;;5105602;28;19911;-40
2021/05/19 05:27:56;;;;;;;;;;;10.80;97.20;;;;;;5098129;28;19908;-40
2021/05/19 05:30:28;;;;;;;;;;;10.80;97.10;;;;;;5106391;28;19908;-41
2021/05/19 05:32:54;;;;;;;;;;;10.90;97.10;;;;;;5096347;28;19954;-40
2021/05/19 05:35:19;;;;;;;;;;;11.00;97.10;;;;;;5106731;28;19955;-38
2021/05/19 05:37:45;;;;;;;;;;;11.00;97.20;;;;;;5096528;28;19903;-39
2021/05/19 05:40:10;;;;;;;;;;;11.10;97.20;;;;;;5090966;28;19937;-39
2021/05/19 05:42:36;;;;;;;;;;;11.10;97.10;;;;;;5100455;28;19904;-40
2021/05/19 05:45:03;;;;;;;;;;;11.20;97.10;;;;;;5105629;28;19912;-40
2021/05/19 05:47:28;;;;;;;;;;;11.30;97.10;;;;;;5091435;28;19915;-40
2021/05/19 05:49:54;;;;;;;;;;;11.30;97.10;;;;;;5106619;28;20346;-40
2021/05/19 05:52:19;;;;;;;;;;;11.30;97.30;;;;;;5095932;28;19938;-39
2021/05/19 05:54:45;;;;;;;;;;;11.40;97.40;;;;;;5105126;28;20297;-37
2021/05/19 05:57:10;;;;;;;;;;;11.40;97.30;;;;;;5097656;28;19915;-39
2021/05/19 05:59:36;;;;;;;;;;;11.40;97.30;;;;;;5090732;28;20592;-40
2021/05/19 06:02:02;;;;;;;;;;;11.40;97.50;;;;;;5091045;28;19919;-40
2021/05/19 06:04:27;;;;;;;;;;;11.40;97.70;;;;;;5093456;28;19969;-39
2021/05/19 06:06:53;;;;;;;;;;;11.30;97.80;;;;;;5089687;28;19918;-40
2021/05/19 06:09:18;;;;;;;;;;;11.30;97.80;;;;;;5097494;28;19937;-41
2021/05/19 06:11:44;;;;;;;;;;;11.30;97.80;;;;;;5103986;28;19982;-40
2021/05/19 06:14:09;;;;;;;;;;;11.30;97.90;;;;;;5095714;28;19955;-40
2021/05/19 06:16:35;;;;;;;;;;;11.30;98.10;;;;;;5104978;28;19904;-36
2021/05/19 06:19:03;;;;;;;;;;;11.30;98.40;;;;;;5094882;28;19912;-40
2021/05/19 06:21:29;;;;;;;;;;;11.30;98.10;;;;;;5107619;28;20478;-40
2021/05/19 06:23:54;;;;;;;;;;;11.40;98.40;;;;;;5093303;28;19953;-39
2021/05/19 06:26:19;;;;;;;;;;;11.50;98.50;;;;;;5093040;28;19915;-40
2021/05/19 06:28:45;;;;;;;;;;;11.70;98.70;;;;;;5090997;28;19911;-39
2021/05/19 06:31:11;;;;;;;;;;;11.90;98.80;;;;;;5107458;28;19914;-40
2021/05/19 06:33:36;;;;;;;;;;;12.10;98.40;;;;;;5096400;28;19908;-40
2021/05/19 06:36:02;;;;;;;;;;;12.20;98.50;;;;;;5104680;28;19908;-42
2021/05/19 06:38:27;;;;;;;;;;;12.40;98.40;;;;;;5099165;28;20399;-41
2021/05/19 06:40:53;;;;;;;;;;;12.40;98.50;;;;;;5100977;28;19957;-40
2021/05/19 06:43:18;;;;;;;;;;;12.50;98.40;;;;;;5102592;28;19924;-40
2021/05/19 06:45:47;;;;;;;;;;;12.60;98.40;;;;;;5098068;28;19995;-39
2021/05/19 06:48:12;;;;;;;;;;;12.70;98.30;;;;;;5092969;28;19912;-40
2021/05/19 06:50:38;;;;;;;;;;;12.80;98.30;;;;;;5096430;28;20472;-38
2021/05/19 06:53:03;;;;;;;;;;;12.90;98.20;;;;;;5105734;28;20002;-39
2021/05/19 06:55:29;;;;;;;;;;;12.90;98.20;;;;;;5093194;28;19953;-39
2021/05/19 06:57:54;;;;;;;;;;;12.80;98.20;;;;;;5087006;28;20006;-40
2021/05/19 07:00:20;;;;;;;;;;;12.80;98.30;;;;;;5098286;28;19904;-40
2021/05/19 07:02:46;;;;;;;;;;;12.90;98.30;;;;;;5086045;28;19910;-38
2021/05/19 07:05:11;;;;;;;;;;;12.90;98.30;;;;;;5099737;28;19908;-39
2021/05/19 07:07:37;;;;;;;;;;;12.90;98.20;;;;;;5086128;28;19955;-37
2021/05/19 07:10:07;;;;;;;;;;;13.00;98.20;;;;;;5098491;28;20353;-39
2021/05/19 07:12:33;;;;;;;;;;;13.00;98.10;;;;;;5089446;28;20340;-39
2021/05/19 07:15:03;;;;;;;;;;;13.00;98.10;;;;;;5099905;28;19943;-40
2021/05/19 07:17:29;;;;;;;;;;;13.00;98.10;;;;;;5093597;28;19965;-42
2021/05/19 07:19:54;;;;;;;;;;;13.00;98.10;;;;;;5098838;28;19955;-39
2021/05/19 07:22:20;;;;;;;;;;;13.00;98.10;;;;;;5110987;28;19903;-40
2021/05/19 07:24:47;;;;;;;;;;;13.10;98.10;;;;;;5106246;28;20027;-40
2021/05/19 07:27:13;;;;;;;;;;;13.10;98.00;;;;;;5097868;28;19908;-40
2021/05/19 07:29:39;;;;;;;;;;;13.10;98.00;;;;;;5092361;28;19970;-40
2021/05/19 07:32:05;;;;;;;;;;;13.20;98.00;;;;;;5100718;28;19907;-40
2021/05/19 07:34:31;;;;;;;;;;;13.20;97.90;;;;;;5091506;28;19904;-38
2021/05/19 07:36:56;;;;;;;;;;;13.30;97.80;;;;;;5101359;28;19908;-40
2021/05/19 07:39:22;;;;;;;;;;;13.40;97.80;;;;;;5091752;28;20266;-39
2021/05/19 07:41:48;;;;;;;;;;;13.40;97.70;;;;;;5101190;28;19991;-40
2021/05/19 07:44:13;;;;;;;;;;;13.40;97.70;;;;;;5089822;28;19916;-40
2021/05/19 07:46:41;;;;;;;;;;;13.40;97.80;;;;;;5102867;28;20010;-40
2021/05/19 07:49:07;;;;;;;;;;;13.30;97.70;;;;;;5090725;28;19916;-40
2021/05/19 07:51:35;;;;;;;;;;;13.30;97.80;;;;;;5101612;28;19910;-39
2021/05/19 07:54:02;;;;;;;;;;;13.40;97.80;;;;;;5089912;28;20587;-40
2021/05/19 07:56:34;;;;;;;;;;;13.40;97.70;;;;;;5091858;28;20347;-41
2021/05/19 08:04:06;;;;;;;;;;;13.50;97.70;;;;;;5108877;28;19911;-40
2021/05/19 08:06:34;;;;;;;;;;;13.40;97.70;;;;;;5101313;28;19915;-40
2021/05/19 08:09:00;;;;;;;;;;;13.40;97.80;;;;;;5106204;28;20421;-40
2021/05/19 08:11:26;;;;;;;;;;;13.40;97.80;;;;;;5103849;28;19912;-39
2021/05/19 08:13:51;;;;;;;;;;;13.40;97.80;;;;;;5102666;28;19919;-40
2021/05/19 08:16:17;;;;;;;;;;;13.30;97.80;;;;;;5106461;28;20247;-39
2021/05/19 08:18:42;;;;;;;;;;;13.40;97.80;;;;;;5097942;28;19908;-39
2021/05/19 08:21:08;;;;;;;;;;;13.40;97.70;;;;;;5108356;28;19981;-36
2021/05/19 08:23:34;;;;;;;;;;;13.60;97.60;;;;;;5097030;28;19916;-38
2021/05/19 08:26:00;;;;;;;;;;;13.80;97.40;;;;;;5107433;28;19907;-38
2021/05/19 08:28:25;;;;;;;;;;;13.90;97.10;;;;;;5098523;28;19903;-41
2021/05/19 08:30:51;;;;;;;;;;;14.00;97.10;;;;;;5109353;28;20250;-39
2021/05/19 08:33:18;;;;;;;;;;;14.10;96.80;;;;;;5096614;28;19907;-38
2021/05/19 08:35:43;;;;;;;;;;;14.10;96.60;;;;;;5109371;28;19915;-41
2021/05/19 08:38:09;;;;;;;;;;;14.10;96.50;;;;;;5096383;28;19913;-41
2021/05/19 08:40:35;;;;;;;;;;;14.10;96.60;;;;;;5109187;28;19908;-39
2021/05/19 08:43:04;;;;;;;;;;;14.10;96.70;;;;;;5098218;28;20396;-38
2021/05/19 08:45:29;;;;;;;;;;;14.10;96.70;;;;;;5107693;28;19911;-38
2021/05/19 08:48:02;;;;;;;;;;;14.20;96.80;;;;;;5099899;28;19915;-40
2021/05/19 08:50:28;;;;;;;;;;;14.20;96.80;;;;;;5105913;28;20010;-37
2021/05/19 08:52:56;;;;;;;;;;;14.30;96.90;;;;;;5101055;28;19915;-40
2021/05/19 08:55:21;;;;;;;;;;;14.40;96.60;;;;;;5104266;28;19908;-39
2021/05/19 08:57:50;;;;;;;;;;;14.50;96.30;;;;;;5094235;28;20473;-39
2021/05/19 09:00:16;;;;;;;;;;;14.60;96.30;;;;;;5096223;28;19904;-41
2021/05/19 09:03:01;;;;;;;;;;;14.70;96.30;;;;;;5090071;28;20077;-37
2021/05/19 09:05:30;;;;;;;;;;;14.80;96.00;;;;;;5096366;28;20311;-39
2021/05/19 09:08:01;;;;;;;;;;;14.90;95.90;;;;;;5090808;28;19908;-40
2021/05/19 09:10:27;;;;;;;;;;;15.10;95.30;;;;;;5097883;28;19908;-39
2021/05/19 09:12:52;;;;;;;;;;;15.30;95.10;;;;;;5089308;28;19912;-40
2021/05/19 09:15:18;;;;;;;;;;;15.50;95.00;;;;;;5099305;28;20019;-39
2021/05/19 09:17:43;;;;;;;;;;;15.60;94.90;;;;;;5095845;28;19914;-39
2021/05/19 09:20:10;;;;;;;;;;;15.70;94.80;;;;;;5099986;28;20057;-40
2021/05/19 09:22:37;;;;;;;;;;;15.90;94.60;;;;;;5087188;28;19904;-36
2021/05/19 09:25:16;;;;;;;;;;;16.10;94.70;;;;;;5100099;28;20325;-37
2021/05/19 09:27:43;;;;;;;;;;;16.20;94.60;;;;;;5102938;28;19904;-39
2021/05/19 09:30:09;;;;;;;;;;;16.20;94.20;;;;;;5095503;28;19926;-39
2021/05/19 09:32:43;;;;;;;;;;;16.30;94.10;;;;;;5108220;28;19947;-40
2021/05/19 09:35:10;;;;;;;;;;;16.30;93.60;;;;;;5094261;28;19912;-39
2021/05/19 09:37:36;;;;;;;;;;;16.30;93.70;;;;;;5108569;28;19950;-40
2021/05/19 09:40:01;;;;;;;;;;;16.30;93.70;;;;;;5095880;28;19996;-42
2021/05/19 09:42:39;;;;;;;;;;;16.30;93.20;;;;;;5105178;28;19907;-40
2021/05/19 09:45:24;;;;;;;;;;;16.10;93.60;;;;;;5098109;28;20354;-39
2021/05/19 09:47:51;;;;;;;;;;;16.00;93.90;;;;;;5087365;28;19912;-39
2021/05/19 09:50:21;;;;;;;;;;;15.90;94.00;;;;;;5091675;28;20511;-40
2021/05/19 09:53:05;;;;;;;;;;;16.10;94.10;;;;;;5106713;28;19923;-39
2021/05/19 09:55:30;;;;;;;;;;;16.20;93.90;;;;;;5096090;28;20347;-40
2021/05/19 09:57:56;;;;;;;;;;;16.30;93.60;;;;;;5107022;28;19911;-41
2021/05/19 10:00:23;;;;;;;;;;;16.40;93.60;;;;;;5099583;28;20294;-40
2021/05/19 10:02:50;;;;;;;;;;;16.50;93.60;;;;;;5103730;28;19912;-39
2021/05/19 10:05:26;;;;;;;;;;;16.50;93.50;;;;;;5100110;28;19951;-39
2021/05/19 10:07:54;;;;;;;;;;;16.50;93.40;;;;;;5102881;28;19939;-40
2021/05/19 10:10:19;;;;;;;;;;;16.40;93.10;;;;;;5101780;28;19995;-39
2021/05/19 10:12:45;;;;;;;;;;;16.30;93.40;;;;;;5088932;28;20430;-38
2021/05/19 10:15:13;;;;;;;;;;;16.30;93.60;;;;;;5101532;28;19926;-41
2021/05/19 10:17:46;;;;;;;;;;;16.30;93.70;;;;;;5096243;28;19950;-40
2021/05/19 10:20:13;;;;;;;;;;;16.40;93.60;;;;;;5105588;28;20044;-39
2021/05/19 10:22:42;;;;;;;;;;;16.50;93.70;;;;;;5096664;28;19982;-40
2021/05/19 10:25:19;;;;;;;;;;;16.70;93.60;;;;;;5105681;28;19965;-40
2021/05/19 10:27:46;;;;;;;;;;;16.80;93.40;;;;;;5095231;28;19983;-39
2021/05/19 10:30:12;;;;;;;;;;;16.90;93.30;;;;;;5106401;28;20441;-39
2021/05/19 10:32:37;;;;;;;;;;;16.90;92.90;;;;;;5095182;28;19914;-38
2021/05/19 10:35:07;;;;;;;;;;;17.00;92.90;;;;;;5106410;28;19904;-38
2021/05/19 10:37:46;;;;;;;;;;;17.10;92.70;;;;;;5101743;28;19904;-39
2021/05/19 10:40:18;;;;;;;;;;;17.20;92.20;;;;;;5086568;28;19915;-40
2021/05/19 10:42:51;;;;;;;;;;;17.40;91.60;;;;;;5101253;28;19977;-40
2021/05/19 10:45:16;;;;;;;;;;;17.40;91.30;;;;;;5087081;28;19927;-38
2021/05/19 10:47:44;;;;;;;;;;;17.60;91.20;;;;;;5098312;28;20026;-41
2021/05/19 10:50:14;;;;;;;;;;;17.40;87.40;;;;;;5087747;28;20014;-41
2021/05/19 10:58:42;;;;;;;;;;;15.00;88.80;;;;;;5103587;28;19922;-39
2021/05/19 11:01:10;;;;;;;;;;;14.20;92.00;;;;;;5086733;28;20058;-41
2021/05/19 11:03:39;;;;;;;;;;;13.00;94.60;;;;;;5097278;28;19941;-42
2021/05/19 11:06:07;;;;;;;;;;;11.70;99.50;;;;;;5086219;28;19903;-42
2021/05/19 11:08:34;;;;;;;;;;;11.00;99.90;;;;;;5101509;28;19904;-43
2021/05/19 11:11:13;;;;;;;;;;;10.50;99.90;;;;;;5086597;28;19912;-43
2021/05/19 11:13:55;;;;;;;;;;;10.30;99.90;;;;;;5098368;28;20402;-42
2021/05/19 11:16:26;;;;;;;;;;;10.00;99.90;;;;;;5086755;28;20042;-42
2021/05/19 11:19:12;;;;;;;;;;;9.80;99.90;;;;;;5098448;28;19904;-42
2021/05/19 11:21:38;;;;;;;;;;;9.70;99.90;;;;;;5086135;28;19940;-42
2021/05/19 11:24:04;;;;;;;;;;;9.70;99.90;;;;;;5098849;28;20366;-44
2021/05/19 11:26:37;;;;;;;;;;;9.70;99.90;;;;;;5086860;28;19908;-43
2021/05/19 11:29:02;;;;;;;;;;;9.70;99.90;;;;;;5098394;28;19912;-43
2021/05/19 11:31:32;;;;;;;;;;;9.60;99.90;;;;;;5086726;28;19993;-42
2021/05/19 11:33:59;;;;;;;;;;;9.60;99.90;;;;;;5098771;28;19907;-42
2021/05/19 11:36:33;;;;;;;;;;;9.60;99.90;;;;;;5086422;28;19934;-45
2021/05/19 11:39:04;;;;;;;;;;;9.60;99.90;;;;;;5088143;28;19970;-41
2021/05/19 11:41:30;;;;;;;;;;;9.60;99.90;;;;;;5105666;28;19937;-42
2021/05/19 11:43:55;;;;;;;;;;;9.60;99.90;;;;;;5104210;28;19927;-43
2021/05/19 11:46:23;;;;;;;;;;;9.70;99.90;;;;;;5106360;28;19904;-44
2021/05/19 11:48:49;;;;;;;;;;;9.60;99.90;;;;;;5104728;28;19924;-42
2021/05/19 11:51:16;;;;;;;;;;;9.60;99.90;;;;;;5106533;28;19908;-43
2021/05/19 11:54:01;;;;;;;;;;;9.60;99.90;;;;;;5104795;28;19998;-43
2021/05/19 11:56:40;;;;;;;;;;;9.70;99.90;;;;;;5104504;28;20383;-43
2021/05/19 11:59:35;;;;;;;;;;;9.80;99.90;;;;;;5105169;28;19904;-43
2021/05/19 12:02:12;;;;;;;;;;;9.80;99.90;;;;;;5108642;28;20002;-44
2021/05/19 12:04:41;;;;;;;;;;;9.80;99.90;;;;;;5105889;28;19915;-42
2021/05/19 12:07:07;;;;;;;;;;;9.80;99.90;;;;;;5110371;28;20297;-44
2021/05/19 12:09:42;;;;;;;;;;;9.90;99.90;;;;;;5102519;28;19904;-44
2021/05/19 12:12:17;;;;;;;;;;;9.90;99.90;;;;;;5107273;28;19912;-43
2021/05/19 12:14:53;;;;;;;;;;;9.90;99.90;;;;;;5101876;28;20338;-41
2021/05/19 12:17:25;;;;;;;;;;;10.00;99.90;;;;;;5106515;28;19903;-43
2021/05/19 12:19:51;;;;;;;;;;;10.00;99.90;;;;;;5102380;28;19912;-42
2021/05/19 12:22:18;;;;;;;;;;;10.20;99.90;;;;;;5105245;28;20320;-44
2021/05/19 12:24:45;;;;;;;;;;;10.30;99.90;;;;;;5103927;28;19970;-41
2021/05/19 12:27:10;;;;;;;;;;;10.40;99.90;;;;;;5102901;28;20011;-41
2021/05/19 12:29:41;;;;;;;;;;;10.50;99.90;;;;;;5107110;28;19999;-43
2021/05/19 12:32:07;;;;;;;;;;;10.70;99.90;;;;;;5099766;28;19904;-42
2021/05/19 12:34:34;;;;;;;;;;;10.80;99.90;;;;;;5107093;28;19957;-45
2021/05/19 12:36:59;;;;;;;;;;;11.00;99.90;;;;;;5098098;28;19915;-43
2021/05/19 12:39:29;;;;;;;;;;;11.20;99.90;;;;;;5107816;28;20010;-41
2021/05/19 12:41:57;;;;;;;;;;;11.30;99.90;;;;;;5097953;28;19912;-42
2021/05/19 12:44:27;;;;;;;;;;;11.60;99.90;;;;;;5109265;28;19950;-41
2021/05/19 12:46:57;;;;;;;;;;;11.80;99.90;;;;;;5096775;28;20423;-43
2021/05/19 12:49:22;;;;;;;;;;;12.00;99.90;;;;;;5100425;28;19908;-42
2021/05/19 12:51:49;;;;;;;;;;;12.20;99.90;;;;;;5101127;28;20568;-42
2021/05/19 12:54:20;;;;;;;;;;;12.40;99.90;;;;;;5088638;28;19904;-43
2021/05/19 12:56:45;;;;;;;;;;;12.50;99.90;;;;;;5094163;28;20308;-42
2021/05/19 12:59:12;;;;;;;;;;;12.50;99.90;;;;;;5088833;28;19939;-43
2021/05/19 13:01:51;;;;;;;;;;;12.50;99.90;;;;;;5099395;28;19908;-43
2021/05/19 13:04:20;;;;;;;;;;;12.60;99.90;;;;;;5089100;28;20354;-43
2021/05/19 13:06:50;;;;;;;;;;;12.70;99.90;;;;;;5092135;28;19912;-43
2021/05/19 13:09:21;;;;;;;;;;;12.90;99.90;;;;;;5107422;28;19904;-43
2021/05/19 13:12:05;;;;;;;;;;;13.00;99.90;;;;;;5098489;28;19988;-42
2021/05/19 13:14:32;;;;;;;;;;;13.10;99.90;;;;;;5107320;28;20471;-42
2021/05/19 13:17:05;;;;;;;;;;;13.10;99.90;;;;;;5104813;28;19947;-44
2021/05/19 13:19:30;;;;;;;;;;;13.20;99.90;;;;;;5108529;28;19904;-43
2021/05/19 13:21:56;;;;;;;;;;;13.40;99.90;;;;;;5100897;28;19908;-42
2021/05/19 13:24:22;;;;;;;;;;;13.50;99.90;;;;;;5103923;28;19996;-42
2021/05/19 13:27:01;;;;;;;;;;;13.50;99.90;;;;;;5103211;28;19908;-43
2021/05/19 13:29:26;;;;;;;;;;;13.60;99.90;;;;;;5102687;28;19918;-41
2021/05/19 13:31:59;;;;;;;;;;;13.70;99.90;;;;;;5103964;28;19907;-42
2021/05/19 13:36:51;;;;;;;;;;;13.70;99.90;;;;;;5106249;28;20011;-42
2021/05/19 13:39:21;;;;;;;;;;;13.70;99.90;;;;;;5098774;28;20453;-42
2021/05/19 13:41:48;;;;;;;;;;;13.60;99.90;;;;;;5106434;28;19911;-42
2021/05/19 13:44:14;;;;;;;;;;;13.60;99.90;;;;;;5103684;28;20340;-45
2021/05/19 13:46:43;;;;;;;;;;;13.60;99.90;;;;;;5106897;28;19907;-45
2021/05/19 13:49:17;;;;;;;;;;;13.60;99.90;;;;;;5096945;28;19908;-42
2021/05/19 13:51:46;;;;;;;;;;;13.50;99.90;;;;;;5107485;28;19910;-42
2021/05/19 13:54:12;;;;;;;;;;;13.50;99.90;;;;;;5105417;28;19915;-42
2021/05/19 13:56:38;;;;;;;;;;;13.50;99.90;;;;;;5100570;28;19908;-42
2021/05/19 13:59:03;;;;;;;;;;;13.50;99.90;;;;;;5100506;28;19907;-43
2021/05/19 14:01:29;;;;;;;;;;;13.60;99.90;;;;;;5088636;28;19908;-41
2021/05/19 14:03:54;;;;;;;;;;;13.80;99.90;;;;;;5099855;28;20662;-43
2021/05/19 14:06:20;;;;;;;;;;;13.90;99.90;;;;;;5088497;28;19974;-43
2021/05/19 14:08:45;;;;;;;;;;;14.10;99.90;;;;;;5097453;28;19903;-43
2021/05/19 14:11:12;;;;;;;;;;;14.30;99.90;;;;;;5090552;28;20301;-42
2021/05/19 14:13:43;;;;;;;;;;;14.50;99.90;;;;;;5094918;28;19962;-43
2021/05/19 14:29:11;;;;;;;;;;;14.70;99.90;;;;;;5100045;28;19907;-42
2021/05/19 14:31:37;;;;;;;;;;;14.60;99.90;;;;;;5102136;28;19914;-44
2021/05/19 14:34:03;;;;;;;;;;;14.60;99.90;;;;;;5103110;28;20020;-42
2021/05/19 14:36:56;;;;;;;;;;;14.70;99.90;;;;;;5105596;28;19908;-42
2021/05/19 14:45:07;;;;;;;;;;;14.80;98.60;;;;;;5099129;28;19919;-43
2021/05/19 15:01:14;;;;;;;;;;;15.10;98.40;;;;;;5100464;28;19915;-42
2021/05/19 15:03:39;;;;;;;;;;;15.30;98.50;;;;;;5086804;28;20407;-41
2021/05/19 15:06:05;;;;;;;;;;;15.40;98.40;;;;;;5099441;28;19904;-42
2021/05/19 15:08:30;;;;;;;;;;;15.40;98.00;;;;;;5086837;28;19915;-41